sensor_id;sensor_type;location;lat;lon;timestamp;P1;durP1;ratioP1;P2;durP2;ratioP2
47433;SDS011;33184;48.774;8.918;2023-06-10T00:01:31;5.40;;;4.80;;
47433;SDS011;33184;48.774;8.918;2023-06-10T00:06:54;6.45;;;5.32;;
47433;SDS011;33184;48.774;8.918;2023-06-10T00:12:15;7.60;;;5.50;;
47433;SDS011;33184;48.774;8.918;2023-06-10T00:17:37;5.75;;;5.25;;
47433;SDS011;33184;48.774;8.918;2023-06-10T00:22:59;6.07;;;5.28;;
47433;SDS011;33184;48.774;8.918;2023-06-10T00:28:21;6.57;;;5.63;;
47433;SDS011;33184;48.774;8.918;2023-06-10T00:33:42;6.75;;;5.72;;
47433;SDS011;33184;48.774;8.918;2023-06-10T00:39:03;6.07;;;5.38;;
47433;SDS011;33184;48.774;8.918;2023-06-10T00:44:24;6.85;;;5.70;;
47433;SDS011;33184;48.774;8.918;2023-06-10T00:49:45;6.07;;;5.30;;
47433;SDS011;33184;48.774;8.918;2023-06-10T00:55:06;7.50;;;6.13;;
47433;SDS011;33184;48.774;8.918;2023-06-10T01:00:28;6.70;;;6.07;;
47433;SDS011;33184;48.774;8.918;2023-06-10T01:05:50;6.72;;;5.97;;
47433;SDS011;33184;48.774;8.918;2023-06-10T01:11:24;6.53;;;5.38;;
47433;SDS011;33184;48.774;8.918;2023-06-10T01:16:48;8.30;;;6.55;;
47433;SDS011;33184;48.774;8.918;2023-06-10T01:22:10;6.30;;;5.78;;
47433;SDS011;33184;48.774;8.918;2023-06-10T01:27:32;6.22;;;5.63;;
47433;SDS011;33184;48.774;8.918;2023-06-10T01:33:00;6.65;;;6.05;;
47433;SDS011;33184;48.774;8.918;2023-06-10T01:38:22;6.95;;;6.25;;
47433;SDS011;33184;48.774;8.918;2023-06-10T01:43:45;7.30;;;6.60;;
47433;SDS011;33184;48.774;8.918;2023-06-10T01:49:07;8.23;;;7.43;;
47433;SDS011;33184;48.774;8.918;2023-06-10T01:54:28;8.43;;;7.57;;
47433;SDS011;33184;48.774;8.918;2023-06-10T01:59:48;7.55;;;6.82;;
47433;SDS011;33184;48.774;8.918;2023-06-10T02:05:09;7.13;;;6.53;;
47433;SDS011;33184;48.774;8.918;2023-06-10T02:10:30;8.60;;;7.22;;
47433;SDS011;33184;48.774;8.918;2023-06-10T02:15:51;8.00;;;7.13;;
47433;SDS011;33184;48.774;8.918;2023-06-10T02:21:13;8.07;;;7.32;;
47433;SDS011;33184;48.774;8.918;2023-06-10T02:26:34;8.13;;;7.43;;
47433;SDS011;33184;48.774;8.918;2023-06-10T02:31:56;8.32;;;7.63;;
47433;SDS011;33184;48.774;8.918;2023-06-10T02:37:16;7.65;;;6.95;;
47433;SDS011;33184;48.774;8.918;2023-06-10T02:42:38;6.93;;;6.30;;
47433;SDS011;33184;48.774;8.918;2023-06-10T02:47:59;7.32;;;6.63;;
47433;SDS011;33184;48.774;8.918;2023-06-10T02:53:20;7.95;;;7.18;;
47433;SDS011;33184;48.774;8.918;2023-06-10T02:58:47;7.03;;;6.38;;
47433;SDS011;33184;48.774;8.918;2023-06-10T03:04:10;7.03;;;6.45;;
47433;SDS011;33184;48.774;8.918;2023-06-10T03:09:34;7.60;;;6.78;;
47433;SDS011;33184;48.774;8.918;2023-06-10T03:14:57;9.30;;;6.68;;
47433;SDS011;33184;48.774;8.918;2023-06-10T03:20:18;8.52;;;7.55;;
47433;SDS011;33184;48.774;8.918;2023-06-10T03:25:40;9.63;;;7.10;;
47433;SDS011;33184;48.774;8.918;2023-06-10T03:31:00;8.35;;;6.95;;
47433;SDS011;33184;48.774;8.918;2023-06-10T03:36:23;7.13;;;6.53;;
47433;SDS011;33184;48.774;8.918;2023-06-10T03:41:44;7.88;;;7.18;;
47433;SDS011;33184;48.774;8.918;2023-06-10T03:47:06;6.93;;;6.30;;
47433;SDS011;33184;48.774;8.918;2023-06-10T03:52:27;7.40;;;6.70;;
47433;SDS011;33184;48.774;8.918;2023-06-10T03:57:49;8.73;;;8.02;;
47433;SDS011;33184;48.774;8.918;2023-06-10T04:03:10;7.68;;;6.97;;
47433;SDS011;33184;48.774;8.918;2023-06-10T04:08:37;7.07;;;6.47;;
47433;SDS011;33184;48.774;8.918;2023-06-10T04:13:58;9.70;;;7.32;;
47433;SDS011;33184;48.774;8.918;2023-06-10T04:19:20;7.45;;;6.85;;
47433;SDS011;33184;48.774;8.918;2023-06-10T04:24:41;7.88;;;6.95;;
47433;SDS011;33184;48.774;8.918;2023-06-10T04:30:04;7.88;;;7.18;;
47433;SDS011;33184;48.774;8.918;2023-06-10T04:35:27;10.63;;;7.32;;
47433;SDS011;33184;48.774;8.918;2023-06-10T04:40:50;9.32;;;8.02;;
47433;SDS011;33184;48.774;8.918;2023-06-10T04:46:12;8.60;;;7.80;;
47433;SDS011;33184;48.774;8.918;2023-06-10T04:51:33;9.70;;;8.80;;
47433;SDS011;33184;48.774;8.918;2023-06-10T04:56:55;9.18;;;7.47;;
47433;SDS011;33184;48.774;8.918;2023-06-10T05:02:15;9.93;;;8.00;;
47433;SDS011;33184;48.774;8.918;2023-06-10T05:07:36;9.98;;;8.85;;
47433;SDS011;33184;48.774;8.918;2023-06-10T05:12:57;8.93;;;8.23;;
47433;SDS011;33184;48.774;8.918;2023-06-10T05:18:18;10.32;;;7.75;;
47433;SDS011;33184;48.774;8.918;2023-06-10T05:23:39;8.30;;;7.53;;
47433;SDS011;33184;48.774;8.918;2023-06-10T05:28:59;8.93;;;8.07;;
47433;SDS011;33184;48.774;8.918;2023-06-10T05:34:20;7.95;;;7.25;;
47433;SDS011;33184;48.774;8.918;2023-06-10T05:39:40;8.05;;;7.25;;
47433;SDS011;33184;48.774;8.918;2023-06-10T05:45:01;8.65;;;7.95;;
47433;SDS011;33184;48.774;8.918;2023-06-10T05:50:24;7.53;;;6.75;;
47433;SDS011;33184;48.774;8.918;2023-06-10T05:55:45;6.90;;;6.28;;
47433;SDS011;33184;48.774;8.918;2023-06-10T06:01:06;6.95;;;6.32;;
47433;SDS011;33184;48.774;8.918;2023-06-10T06:06:26;7.50;;;6.80;;
47433;SDS011;33184;48.774;8.918;2023-06-10T06:11:47;7.05;;;6.35;;
47433;SDS011;33184;48.774;8.918;2023-06-10T06:17:07;6.90;;;6.20;;
47433;SDS011;33184;48.774;8.918;2023-06-10T06:22:28;6.80;;;6.20;;
47433;SDS011;33184;48.774;8.918;2023-06-10T06:27:48;6.57;;;5.97;;
47433;SDS011;33184;48.774;8.918;2023-06-10T06:33:09;7.75;;;5.25;;
47433;SDS011;33184;48.774;8.918;2023-06-10T06:38:30;5.07;;;4.63;;
47433;SDS011;33184;48.774;8.918;2023-06-10T06:43:51;5.13;;;4.72;;
47433;SDS011;33184;48.774;8.918;2023-06-10T06:49:18;6.30;;;5.70;;
47433;SDS011;33184;48.774;8.918;2023-06-10T06:54:39;5.68;;;4.28;;
47433;SDS011;33184;48.774;8.918;2023-06-10T06:59:59;7.60;;;4.30;;
47433;SDS011;33184;48.774;8.918;2023-06-10T07:05:20;6.07;;;4.43;;
47433;SDS011;33184;48.774;8.918;2023-06-10T07:10:40;4.38;;;3.97;;
47433;SDS011;33184;48.774;8.918;2023-06-10T07:16:01;4.85;;;3.95;;
47433;SDS011;33184;48.774;8.918;2023-06-10T07:21:22;5.35;;;4.85;;
47433;SDS011;33184;48.774;8.918;2023-06-10T07:26:43;4.75;;;4.35;;
47433;SDS011;33184;48.774;8.918;2023-06-10T07:32:04;4.00;;;3.65;;
47433;SDS011;33184;48.774;8.918;2023-06-10T07:37:24;5.38;;;3.85;;
47433;SDS011;33184;48.774;8.918;2023-06-10T07:42:45;4.72;;;4.22;;
47433;SDS011;33184;48.774;8.918;2023-06-10T07:48:06;3.35;;;3.00;;
47433;SDS011;33184;48.774;8.918;2023-06-10T07:53:27;3.67;;;3.38;;
47433;SDS011;33184;48.774;8.918;2023-06-10T07:58:49;3.20;;;2.90;;
47433;SDS011;33184;48.774;8.918;2023-06-10T08:04:09;3.13;;;2.38;;
47433;SDS011;33184;48.774;8.918;2023-06-10T08:09:30;3.75;;;3.22;;
47433;SDS011;33184;48.774;8.918;2023-06-10T08:14:50;3.92;;;3.53;;
47433;SDS011;33184;48.774;8.918;2023-06-10T08:20:11;3.75;;;3.45;;
47433;SDS011;33184;48.774;8.918;2023-06-10T08:25:32;4.05;;;3.65;;
47433;SDS011;33184;48.774;8.918;2023-06-10T08:30:52;5.22;;;4.57;;
47433;SDS011;33184;48.774;8.918;2023-06-10T08:36:13;4.75;;;3.67;;
47433;SDS011;33184;48.774;8.918;2023-06-10T08:41:35;3.22;;;2.88;;
47433;SDS011;33184;48.774;8.918;2023-06-10T08:46:58;3.97;;;3.43;;
47433;SDS011;33184;48.774;8.918;2023-06-10T08:52:21;3.90;;;3.33;;
47433;SDS011;33184;48.774;8.918;2023-06-10T08:57:42;5.07;;;3.67;;
47433;SDS011;33184;48.774;8.918;2023-06-10T09:03:04;3.38;;;3.08;;
47433;SDS011;33184;48.774;8.918;2023-06-10T09:08:25;4.35;;;2.80;;
47433;SDS011;33184;48.774;8.918;2023-06-10T09:13:46;3.33;;;3.03;;
47433;SDS011;33184;48.774;8.918;2023-06-10T09:19:07;2.50;;;2.30;;
47433;SDS011;33184;48.774;8.918;2023-06-10T09:24:31;3.15;;;2.88;;
47433;SDS011;33184;48.774;8.918;2023-06-10T09:29:53;3.78;;;3.28;;
47433;SDS011;33184;48.774;8.918;2023-06-10T09:35:14;3.22;;;2.92;;
47433;SDS011;33184;48.774;8.918;2023-06-10T09:40:48;3.20;;;3.00;;
47433;SDS011;33184;48.774;8.918;2023-06-10T09:46:18;4.57;;;2.85;;
47433;SDS011;33184;48.774;8.918;2023-06-10T09:51:50;3.42;;;3.13;;
47433;SDS011;33184;48.774;8.918;2023-06-10T09:57:11;3.17;;;2.97;;
47433;SDS011;33184;48.774;8.918;2023-06-10T10:02:32;3.80;;;3.40;;
47433;SDS011;33184;48.774;8.918;2023-06-10T10:07:52;3.65;;;2.53;;
47433;SDS011;33184;48.774;8.918;2023-06-10T10:13:13;3.95;;;3.58;;
47433;SDS011;33184;48.774;8.918;2023-06-10T10:18:34;3.40;;;3.10;;
47433;SDS011;33184;48.774;8.918;2023-06-10T10:24:01;3.22;;;2.97;;
47433;SDS011;33184;48.774;8.918;2023-06-10T10:29:31;4.45;;;2.47;;
47433;SDS011;33184;48.774;8.918;2023-06-10T10:35:00;3.45;;;3.15;;
47433;SDS011;33184;48.774;8.918;2023-06-10T10:40:27;4.00;;;2.38;;
47433;SDS011;33184;48.774;8.918;2023-06-10T10:45:59;2.90;;;2.67;;
47433;SDS011;33184;48.774;8.918;2023-06-10T10:51:26;2.63;;;2.42;;
47433;SDS011;33184;48.774;8.918;2023-06-10T11:02:45;2.97;;;2.78;;
47433;SDS011;33184;48.774;8.918;2023-06-10T11:08:07;3.25;;;3.00;;
47433;SDS011;33184;48.774;8.918;2023-06-10T11:13:28;2.65;;;2.45;;
47433;SDS011;33184;48.774;8.918;2023-06-10T11:18:49;4.55;;;2.40;;
47433;SDS011;33184;48.774;8.918;2023-06-10T11:24:14;2.80;;;2.55;;
47433;SDS011;33184;48.774;8.918;2023-06-10T11:29:34;4.28;;;2.70;;
47433;SDS011;33184;48.774;8.918;2023-06-10T11:34:55;3.08;;;2.38;;
47433;SDS011;33184;48.774;8.918;2023-06-10T11:40:16;2.85;;;2.35;;
47433;SDS011;33184;48.774;8.918;2023-06-10T11:45:36;6.57;;;3.00;;
47433;SDS011;33184;48.774;8.918;2023-06-10T11:50:57;4.15;;;2.38;;
47433;SDS011;33184;48.774;8.918;2023-06-10T11:56:21;2.05;;;1.90;;
47433;SDS011;33184;48.774;8.918;2023-06-10T12:01:46;4.97;;;2.15;;
47433;SDS011;33184;48.774;8.918;2023-06-10T12:07:06;2.58;;;2.38;;
47433;SDS011;33184;48.774;8.918;2023-06-10T12:12:27;4.13;;;2.42;;
47433;SDS011;33184;48.774;8.918;2023-06-10T12:17:48;4.70;;;2.00;;
47433;SDS011;33184;48.774;8.918;2023-06-10T12:23:09;3.58;;;1.90;;
47433;SDS011;33184;48.774;8.918;2023-06-10T12:28:30;1.92;;;1.83;;
47433;SDS011;33184;48.774;8.918;2023-06-10T12:34:01;3.20;;;1.75;;
47433;SDS011;33184;48.774;8.918;2023-06-10T12:39:27;2.15;;;1.95;;
47433;SDS011;33184;48.774;8.918;2023-06-10T12:44:52;3.78;;;1.85;;
47433;SDS011;33184;48.774;8.918;2023-06-10T12:50:13;2.28;;;2.03;;
47433;SDS011;33184;48.774;8.918;2023-06-10T12:55:34;2.55;;;2.33;;
47433;SDS011;33184;48.774;8.918;2023-06-10T13:00:55;2.63;;;1.75;;
47433;SDS011;33184;48.774;8.918;2023-06-10T13:06:16;1.70;;;1.45;;
47433;SDS011;33184;48.774;8.918;2023-06-10T13:11:38;2.50;;;1.60;;
47433;SDS011;33184;48.774;8.918;2023-06-10T13:17:00;2.35;;;1.83;;
47433;SDS011;33184;48.774;8.918;2023-06-10T13:22:20;1.67;;;1.58;;
47433;SDS011;33184;48.774;8.918;2023-06-10T13:27:41;1.48;;;1.38;;
47433;SDS011;33184;48.774;8.918;2023-06-10T13:33:02;2.70;;;1.83;;
47433;SDS011;33184;48.774;8.918;2023-06-10T13:38:23;1.85;;;1.65;;
47433;SDS011;33184;48.774;8.918;2023-06-10T13:43:43;1.40;;;1.30;;
47433;SDS011;33184;48.774;8.918;2023-06-10T13:49:04;1.70;;;1.60;;
47433;SDS011;33184;48.774;8.918;2023-06-10T13:54:24;2.83;;;1.83;;
47433;SDS011;33184;48.774;8.918;2023-06-10T13:59:45;2.22;;;1.60;;
47433;SDS011;33184;48.774;8.918;2023-06-10T14:05:05;1.98;;;1.85;;
47433;SDS011;33184;48.774;8.918;2023-06-10T14:10:28;1.20;;;1.10;;
47433;SDS011;33184;48.774;8.918;2023-06-10T14:15:49;1.50;;;1.40;;
47433;SDS011;33184;48.774;8.918;2023-06-10T14:21:09;1.52;;;1.42;;
47433;SDS011;33184;48.774;8.918;2023-06-10T14:26:30;1.40;;;1.25;;
47433;SDS011;33184;48.774;8.918;2023-06-10T14:31:52;1.20;;;1.10;;
47433;SDS011;33184;48.774;8.918;2023-06-10T14:37:13;1.30;;;1.20;;
47433;SDS011;33184;48.774;8.918;2023-06-10T14:42:33;1.75;;;1.38;;
47433;SDS011;33184;48.774;8.918;2023-06-10T14:47:54;1.45;;;1.35;;
47433;SDS011;33184;48.774;8.918;2023-06-10T14:53:14;2.38;;;1.40;;
47433;SDS011;33184;48.774;8.918;2023-06-10T14:58:35;3.67;;;1.40;;
47433;SDS011;33184;48.774;8.918;2023-06-10T15:03:56;1.58;;;1.45;;
47433;SDS011;33184;48.774;8.918;2023-06-10T15:09:16;1.55;;;1.40;;
47433;SDS011;33184;48.774;8.918;2023-06-10T15:14:37;1.70;;;1.60;;
47433;SDS011;33184;48.774;8.918;2023-06-10T15:19:57;3.17;;;1.48;;
47433;SDS011;33184;48.774;8.918;2023-06-10T15:25:18;1.98;;;1.50;;
47433;SDS011;33184;48.774;8.918;2023-06-10T15:30:38;2.75;;;1.58;;
47433;SDS011;33184;48.774;8.918;2023-06-10T15:35:59;1.48;;;1.38;;
47433;SDS011;33184;48.774;8.918;2023-06-10T15:41:19;1.50;;;1.40;;
47433;SDS011;33184;48.774;8.918;2023-06-10T15:46:40;1.98;;;1.80;;
47433;SDS011;33184;48.774;8.918;2023-06-10T15:52:01;1.55;;;1.45;;
47433;SDS011;33184;48.774;8.918;2023-06-10T15:57:21;3.80;;;1.17;;
47433;SDS011;33184;48.774;8.918;2023-06-10T16:02:42;2.35;;;1.48;;
47433;SDS011;33184;48.774;8.918;2023-06-10T16:08:03;1.67;;;1.50;;
47433;SDS011;33184;48.774;8.918;2023-06-10T16:13:23;2.38;;;1.90;;
47433;SDS011;33184;48.774;8.918;2023-06-10T16:18:44;1.70;;;1.60;;
47433;SDS011;33184;48.774;8.918;2023-06-10T16:24:06;2.70;;;2.10;;
47433;SDS011;33184;48.774;8.918;2023-06-10T16:29:29;1.75;;;1.52;;
47433;SDS011;33184;48.774;8.918;2023-06-10T16:34:50;2.17;;;2.03;;
47433;SDS011;33184;48.774;8.918;2023-06-10T16:40:11;2.30;;;1.45;;
47433;SDS011;33184;48.774;8.918;2023-06-10T16:45:31;2.00;;;1.63;;
47433;SDS011;33184;48.774;8.918;2023-06-10T16:50:52;2.50;;;2.30;;
47433;SDS011;33184;48.774;8.918;2023-06-10T16:56:13;2.75;;;1.30;;
47433;SDS011;33184;48.774;8.918;2023-06-10T17:01:33;2.80;;;1.50;;
47433;SDS011;33184;48.774;8.918;2023-06-10T17:06:54;1.63;;;1.52;;
47433;SDS011;33184;48.774;8.918;2023-06-10T17:12:14;2.85;;;1.70;;
47433;SDS011;33184;48.774;8.918;2023-06-10T17:17:35;2.08;;;1.83;;
47433;SDS011;33184;48.774;8.918;2023-06-10T17:22:56;1.65;;;1.55;;
47433;SDS011;33184;48.774;8.918;2023-06-10T17:28:17;1.60;;;1.50;;
47433;SDS011;33184;48.774;8.918;2023-06-10T17:33:37;2.92;;;1.95;;
47433;SDS011;33184;48.774;8.918;2023-06-10T17:38:58;2.30;;;1.38;;
47433;SDS011;33184;48.774;8.918;2023-06-10T17:44:21;8.25;;;1.63;;
47433;SDS011;33184;48.774;8.918;2023-06-10T17:49:44;2.63;;;1.50;;
47433;SDS011;33184;48.774;8.918;2023-06-10T17:55:05;2.28;;;1.75;;
47433;SDS011;33184;48.774;8.918;2023-06-10T18:00:25;1.70;;;1.60;;
47433;SDS011;33184;48.774;8.918;2023-06-10T18:05:46;1.80;;;1.70;;
47433;SDS011;33184;48.774;8.918;2023-06-10T18:11:07;2.60;;;1.60;;
47433;SDS011;33184;48.774;8.918;2023-06-10T18:16:27;1.63;;;1.52;;
47433;SDS011;33184;48.774;8.918;2023-06-10T18:21:48;2.58;;;1.73;;
47433;SDS011;33184;48.774;8.918;2023-06-10T18:27:09;2.17;;;2.05;;
47433;SDS011;33184;48.774;8.918;2023-06-10T18:32:30;2.15;;;1.88;;
47433;SDS011;33184;48.774;8.918;2023-06-10T18:37:50;2.60;;;2.40;;
47433;SDS011;33184;48.774;8.918;2023-06-10T18:43:11;1.85;;;1.70;;
47433;SDS011;33184;48.774;8.918;2023-06-10T18:48:32;1.90;;;1.80;;
47433;SDS011;33184;48.774;8.918;2023-06-10T18:53:53;3.25;;;1.83;;
47433;SDS011;33184;48.774;8.918;2023-06-10T18:59:14;1.80;;;1.70;;
47433;SDS011;33184;48.774;8.918;2023-06-10T19:04:34;1.92;;;1.60;;
47433;SDS011;33184;48.774;8.918;2023-06-10T19:09:55;2.08;;;1.92;;
47433;SDS011;33184;48.774;8.918;2023-06-10T19:15:15;1.92;;;1.83;;
47433;SDS011;33184;48.774;8.918;2023-06-10T19:20:36;2.30;;;1.95;;
47433;SDS011;33184;48.774;8.918;2023-06-10T19:25:58;1.90;;;1.80;;
47433;SDS011;33184;48.774;8.918;2023-06-10T19:31:20;1.90;;;1.80;;
47433;SDS011;33184;48.774;8.918;2023-06-10T19:36:40;4.40;;;1.75;;
47433;SDS011;33184;48.774;8.918;2023-06-10T19:42:01;3.67;;;1.83;;
47433;SDS011;33184;48.774;8.918;2023-06-10T19:47:22;2.33;;;2.03;;
47433;SDS011;33184;48.774;8.918;2023-06-10T19:52:42;2.15;;;1.92;;
47433;SDS011;33184;48.774;8.918;2023-06-10T19:58:03;3.67;;;1.90;;
47433;SDS011;33184;48.774;8.918;2023-06-10T20:03:23;2.10;;;1.90;;
47433;SDS011;33184;48.774;8.918;2023-06-10T20:08:44;4.25;;;1.77;;
47433;SDS011;33184;48.774;8.918;2023-06-10T20:14:04;2.45;;;2.25;;
47433;SDS011;33184;48.774;8.918;2023-06-10T20:19:25;2.05;;;1.92;;
47433;SDS011;33184;48.774;8.918;2023-06-10T20:24:46;2.20;;;2.10;;
47433;SDS011;33184;48.774;8.918;2023-06-10T20:30:07;2.17;;;1.98;;
47433;SDS011;33184;48.774;8.918;2023-06-10T20:35:28;2.25;;;1.98;;
47433;SDS011;33184;48.774;8.918;2023-06-10T20:40:48;1.83;;;1.65;;
47433;SDS011;33184;48.774;8.918;2023-06-10T20:46:09;3.35;;;2.47;;
47433;SDS011;33184;48.774;8.918;2023-06-10T20:51:30;2.90;;;2.40;;
47433;SDS011;33184;48.774;8.918;2023-06-10T20:56:50;2.60;;;2.40;;
47433;SDS011;33184;48.774;8.918;2023-06-10T21:02:11;2.33;;;2.20;;
47433;SDS011;33184;48.774;8.918;2023-06-10T21:07:31;3.15;;;2.30;;
47433;SDS011;33184;48.774;8.918;2023-06-10T21:12:52;2.53;;;2.33;;
47433;SDS011;33184;48.774;8.918;2023-06-10T21:18:13;2.45;;;2.25;;
47433;SDS011;33184;48.774;8.918;2023-06-10T21:23:34;4.47;;;2.58;;
47433;SDS011;33184;48.774;8.918;2023-06-10T21:28:54;2.90;;;2.40;;
47433;SDS011;33184;48.774;8.918;2023-06-10T21:34:15;3.60;;;2.28;;
47433;SDS011;33184;48.774;8.918;2023-06-10T21:39:35;3.08;;;2.83;;
47433;SDS011;33184;48.774;8.918;2023-06-10T21:44:56;2.55;;;2.35;;
47433;SDS011;33184;48.774;8.918;2023-06-10T21:50:16;3.30;;;2.33;;
47433;SDS011;33184;48.774;8.918;2023-06-10T21:55:37;2.33;;;2.13;;
47433;SDS011;33184;48.774;8.918;2023-06-10T22:00:57;2.78;;;2.55;;
47433;SDS011;33184;48.774;8.918;2023-06-10T22:06:18;2.75;;;2.55;;
47433;SDS011;33184;48.774;8.918;2023-06-10T22:11:39;2.92;;;2.72;;
47433;SDS011;33184;48.774;8.918;2023-06-10T22:16:59;3.05;;;2.63;;
47433;SDS011;33184;48.774;8.918;2023-06-10T22:22:20;2.20;;;2.08;;
47433;SDS011;33184;48.774;8.918;2023-06-10T22:27:41;3.45;;;2.22;;
47433;SDS011;33184;48.774;8.918;2023-06-10T22:33:01;3.30;;;3.05;;
47433;SDS011;33184;48.774;8.918;2023-06-10T22:38:22;3.22;;;2.92;;
47433;SDS011;33184;48.774;8.918;2023-06-10T22:43:42;4.63;;;3.22;;
47433;SDS011;33184;48.774;8.918;2023-06-10T22:49:03;3.42;;;2.72;;
47433;SDS011;33184;48.774;8.918;2023-06-10T22:54:24;3.70;;;3.20;;
47433;SDS011;33184;48.774;8.918;2023-06-10T22:59:46;4.13;;;2.83;;
47433;SDS011;33184;48.774;8.918;2023-06-10T23:05:07;3.65;;;2.75;;
47433;SDS011;33184;48.774;8.918;2023-06-10T23:10:29;3.85;;;3.45;;
47433;SDS011;33184;48.774;8.918;2023-06-10T23:15:50;3.38;;;3.05;;
47433;SDS011;33184;48.774;8.918;2023-06-10T23:21:13;3.87;;;3.57;;
47433;SDS011;33184;48.774;8.918;2023-06-10T23:26:34;3.45;;;3.15;;
47433;SDS011;33184;48.774;8.918;2023-06-10T23:31:55;3.33;;;3.00;;
47433;SDS011;33184;48.774;8.918;2023-06-10T23:37:16;2.92;;;2.72;;
47433;SDS011;33184;48.774;8.918;2023-06-10T23:42:38;3.03;;;2.72;;
47433;SDS011;33184;48.774;8.918;2023-06-10T23:47:59;5.65;;;3.40;;
47433;SDS011;33184;48.774;8.918;2023-06-10T23:53:20;3.60;;;3.22;;
47433;SDS011;33184;48.774;8.918;2023-06-10T23:58:40;2.90;;;2.70;;
